sensor_id;sensor_type;location;lat;lon;timestamp;P1;durP1;ratioP1;P2;durP2;ratioP2
63259;SDS011;49390;51.380;0.098;2023-05-24T00:01:38;6.25;;;2.88;;
63259;SDS011;49390;51.380;0.098;2023-05-24T00:04:09;7.53;;;2.97;;
63259;SDS011;49390;51.380;0.098;2023-05-24T00:06:38;8.07;;;2.90;;
63259;SDS011;49390;51.380;0.098;2023-05-24T00:09:07;6.32;;;2.65;;
63259;SDS011;49390;51.380;0.098;2023-05-24T00:11:35;6.38;;;2.50;;
63259;SDS011;49390;51.380;0.098;2023-05-24T00:14:05;6.60;;;2.67;;
63259;SDS011;49390;51.380;0.098;2023-05-24T00:16:34;8.88;;;2.97;;
63259;SDS011;49390;51.380;0.098;2023-05-24T00:19:02;7.05;;;3.20;;
63259;SDS011;49390;51.380;0.098;2023-05-24T00:21:32;8.05;;;2.78;;
63259;SDS011;49390;51.380;0.098;2023-05-24T00:24:03;5.53;;;2.67;;
63259;SDS011;49390;51.380;0.098;2023-05-24T00:26:31;5.65;;;3.00;;
63259;SDS011;49390;51.380;0.098;2023-05-24T00:28:59;5.82;;;3.08;;
63259;SDS011;49390;51.380;0.098;2023-05-24T00:31:35;7.47;;;2.92;;
63259;SDS011;49390;51.380;0.098;2023-05-24T00:34:06;6.53;;;2.90;;
63259;SDS011;49390;51.380;0.098;2023-05-24T00:36:34;8.57;;;2.80;;
63259;SDS011;49390;51.380;0.098;2023-05-24T00:39:04;6.82;;;3.00;;
63259;SDS011;49390;51.380;0.098;2023-05-24T00:41:33;8.55;;;3.05;;
63259;SDS011;49390;51.380;0.098;2023-05-24T00:44:01;7.50;;;2.80;;
63259;SDS011;49390;51.380;0.098;2023-05-24T00:46:42;6.72;;;3.10;;
63259;SDS011;49390;51.380;0.098;2023-05-24T00:49:11;7.80;;;3.15;;
63259;SDS011;49390;51.380;0.098;2023-05-24T00:51:39;9.10;;;3.20;;
63259;SDS011;49390;51.380;0.098;2023-05-24T00:54:08;10.00;;;2.97;;
63259;SDS011;49390;51.380;0.098;2023-05-24T00:56:36;8.65;;;3.10;;
63259;SDS011;49390;51.380;0.098;2023-05-24T00:59:04;6.50;;;2.85;;
63259;SDS011;49390;51.380;0.098;2023-05-24T01:01:32;6.65;;;2.78;;
63259;SDS011;49390;51.380;0.098;2023-05-24T01:04:01;7.82;;;2.92;;
63259;SDS011;49390;51.380;0.098;2023-05-24T01:06:31;7.00;;;2.92;;
63259;SDS011;49390;51.380;0.098;2023-05-24T01:14:40;6.45;;;2.88;;
63259;SDS011;49390;51.380;0.098;2023-05-24T01:20:01;7.25;;;2.70;;
63259;SDS011;49390;51.380;0.098;2023-05-24T01:25:37;6.65;;;3.40;;
63259;SDS011;49390;51.380;0.098;2023-05-24T01:28:22;5.78;;;2.50;;
63259;SDS011;49390;51.380;0.098;2023-05-24T01:30:53;7.28;;;2.67;;
63259;SDS011;49390;51.380;0.098;2023-05-24T01:33:24;6.07;;;2.97;;
63259;SDS011;49390;51.380;0.098;2023-05-24T01:35:52;7.15;;;2.60;;
63259;SDS011;49390;51.380;0.098;2023-05-24T01:38:20;8.95;;;2.55;;
63259;SDS011;49390;51.380;0.098;2023-05-24T01:40:49;7.18;;;2.70;;
63259;SDS011;49390;51.380;0.098;2023-05-24T01:48:58;5.35;;;2.30;;
63259;SDS011;49390;51.380;0.098;2023-05-24T01:51:57;6.65;;;2.05;;
63259;SDS011;49390;51.380;0.098;2023-05-24T01:54:30;5.47;;;2.30;;
63259;SDS011;49390;51.380;0.098;2023-05-24T01:57:04;7.63;;;2.50;;
63259;SDS011;49390;51.380;0.098;2023-05-24T01:59:35;6.13;;;2.47;;
63259;SDS011;49390;51.380;0.098;2023-05-24T02:04:37;7.05;;;2.20;;
63259;SDS011;49390;51.380;0.098;2023-05-24T02:09:38;5.05;;;2.47;;
63259;SDS011;49390;51.380;0.098;2023-05-24T02:12:06;6.13;;;2.63;;
63259;SDS011;49390;51.380;0.098;2023-05-24T02:14:35;5.05;;;2.50;;
63259;SDS011;49390;51.380;0.098;2023-05-24T02:17:04;7.13;;;2.55;;
63259;SDS011;49390;51.380;0.098;2023-05-24T02:19:34;7.63;;;2.22;;
63259;SDS011;49390;51.380;0.098;2023-05-24T02:22:05;6.70;;;2.65;;
63259;SDS011;49390;51.380;0.098;2023-05-24T02:24:33;5.00;;;2.25;;
63259;SDS011;49390;51.380;0.098;2023-05-24T02:27:03;4.13;;;2.30;;
63259;SDS011;49390;51.380;0.098;2023-05-24T02:29:31;5.90;;;2.47;;
63259;SDS011;49390;51.380;0.098;2023-05-24T02:31:59;5.25;;;2.00;;
63259;SDS011;49390;51.380;0.098;2023-05-24T02:34:28;6.82;;;2.65;;
63259;SDS011;49390;51.380;0.098;2023-05-24T02:37:01;5.47;;;2.33;;
63259;SDS011;49390;51.380;0.098;2023-05-24T02:39:30;7.28;;;2.40;;
63259;SDS011;49390;51.380;0.098;2023-05-24T02:41:58;5.15;;;2.30;;
63259;SDS011;49390;51.380;0.098;2023-05-24T02:44:26;8.32;;;2.83;;
63259;SDS011;49390;51.380;0.098;2023-05-24T02:46:56;6.00;;;2.47;;
63259;SDS011;49390;51.380;0.098;2023-05-24T02:49:24;7.50;;;2.55;;
63259;SDS011;49390;51.380;0.098;2023-05-24T02:51:53;6.63;;;2.58;;
63259;SDS011;49390;51.380;0.098;2023-05-24T02:54:22;8.80;;;2.50;;
63259;SDS011;49390;51.380;0.098;2023-05-24T02:56:52;6.40;;;2.53;;
63259;SDS011;49390;51.380;0.098;2023-05-24T02:59:24;6.63;;;2.40;;
63259;SDS011;49390;51.380;0.098;2023-05-24T03:01:55;7.80;;;2.50;;
63259;SDS011;49390;51.380;0.098;2023-05-24T03:04:27;6.72;;;2.88;;
63259;SDS011;49390;51.380;0.098;2023-05-24T03:06:58;6.00;;;2.60;;
63259;SDS011;49390;51.380;0.098;2023-05-24T03:09:26;5.25;;;2.22;;
63259;SDS011;49390;51.380;0.098;2023-05-24T03:11:57;8.17;;;2.63;;
63259;SDS011;49390;51.380;0.098;2023-05-24T03:14:25;7.45;;;2.75;;
63259;SDS011;49390;51.380;0.098;2023-05-24T03:16:53;6.85;;;2.58;;
63259;SDS011;49390;51.380;0.098;2023-05-24T03:19:22;5.63;;;2.50;;
63259;SDS011;49390;51.380;0.098;2023-05-24T03:21:50;8.40;;;2.70;;
63259;SDS011;49390;51.380;0.098;2023-05-24T03:24:18;6.75;;;2.90;;
63259;SDS011;49390;51.380;0.098;2023-05-24T03:26:51;5.55;;;2.17;;
63259;SDS011;49390;51.380;0.098;2023-05-24T03:29:19;5.43;;;2.97;;
63259;SDS011;49390;51.380;0.098;2023-05-24T03:31:49;5.75;;;2.45;;
63259;SDS011;49390;51.380;0.098;2023-05-24T03:34:17;7.45;;;2.78;;
63259;SDS011;49390;51.380;0.098;2023-05-24T03:36:46;6.47;;;2.80;;
63259;SDS011;49390;51.380;0.098;2023-05-24T03:39:14;6.85;;;2.75;;
63259;SDS011;49390;51.380;0.098;2023-05-24T03:42:09;7.53;;;2.55;;
63259;SDS011;49390;51.380;0.098;2023-05-24T03:44:37;8.65;;;2.90;;
63259;SDS011;49390;51.380;0.098;2023-05-24T03:47:06;7.40;;;2.75;;
63259;SDS011;49390;51.380;0.098;2023-05-24T03:49:34;9.68;;;2.72;;
63259;SDS011;49390;51.380;0.098;2023-05-24T03:52:03;6.28;;;2.67;;
63259;SDS011;49390;51.380;0.098;2023-05-24T03:57:29;8.05;;;3.15;;
63259;SDS011;49390;51.380;0.098;2023-05-24T03:59:58;7.82;;;2.85;;
63259;SDS011;49390;51.380;0.098;2023-05-24T04:02:27;6.78;;;3.08;;
63259;SDS011;49390;51.380;0.098;2023-05-24T04:04:56;6.43;;;2.80;;
63259;SDS011;49390;51.380;0.098;2023-05-24T04:07:24;6.22;;;2.63;;
63259;SDS011;49390;51.380;0.098;2023-05-24T04:09:52;8.48;;;3.10;;
63259;SDS011;49390;51.380;0.098;2023-05-24T04:12:20;8.88;;;2.90;;
63259;SDS011;49390;51.380;0.098;2023-05-24T04:14:48;12.27;;;3.58;;
63259;SDS011;49390;51.380;0.098;2023-05-24T04:17:16;9.30;;;3.85;;
63259;SDS011;49390;51.380;0.098;2023-05-24T04:19:45;8.98;;;3.58;;
63259;SDS011;49390;51.380;0.098;2023-05-24T04:22:13;12.35;;;4.10;;
63259;SDS011;49390;51.380;0.098;2023-05-24T04:24:41;11.32;;;3.80;;
63259;SDS011;49390;51.380;0.098;2023-05-24T04:27:09;10.45;;;3.65;;
63259;SDS011;49390;51.380;0.098;2023-05-24T04:29:40;12.05;;;3.80;;
63259;SDS011;49390;51.380;0.098;2023-05-24T04:32:11;10.13;;;3.65;;
63259;SDS011;49390;51.380;0.098;2023-05-24T04:34:41;9.75;;;3.42;;
63259;SDS011;49390;51.380;0.098;2023-05-24T04:37:11;8.55;;;3.90;;
63259;SDS011;49390;51.380;0.098;2023-05-24T04:39:45;10.00;;;3.95;;
63259;SDS011;49390;51.380;0.098;2023-05-24T04:42:14;11.38;;;4.05;;
63259;SDS011;49390;51.380;0.098;2023-05-24T04:44:42;7.95;;;3.60;;
63259;SDS011;49390;51.380;0.098;2023-05-24T04:47:11;13.25;;;4.65;;
63259;SDS011;49390;51.380;0.098;2023-05-24T04:49:40;8.30;;;3.70;;
63259;SDS011;49390;51.380;0.098;2023-05-24T04:52:07;10.85;;;3.65;;
63259;SDS011;49390;51.380;0.098;2023-05-24T04:54:36;11.05;;;4.10;;
63259;SDS011;49390;51.380;0.098;2023-05-24T04:57:04;10.27;;;3.75;;
63259;SDS011;49390;51.380;0.098;2023-05-24T04:59:32;8.45;;;4.07;;
63259;SDS011;49390;51.380;0.098;2023-05-24T05:02:00;9.75;;;4.20;;
63259;SDS011;49390;51.380;0.098;2023-05-24T05:04:28;7.75;;;3.67;;
63259;SDS011;49390;51.380;0.098;2023-05-24T05:06:56;8.70;;;4.00;;
63259;SDS011;49390;51.380;0.098;2023-05-24T05:09:24;10.43;;;4.70;;
63259;SDS011;49390;51.380;0.098;2023-05-24T05:11:52;9.95;;;4.50;;
63259;SDS011;49390;51.380;0.098;2023-05-24T05:14:20;10.82;;;4.00;;
63259;SDS011;49390;51.380;0.098;2023-05-24T05:16:48;7.63;;;4.10;;
63259;SDS011;49390;51.380;0.098;2023-05-24T05:19:16;12.52;;;5.88;;
63259;SDS011;49390;51.380;0.098;2023-05-24T05:21:44;8.80;;;4.13;;
63259;SDS011;49390;51.380;0.098;2023-05-24T05:24:13;10.02;;;4.20;;
63259;SDS011;49390;51.380;0.098;2023-05-24T05:26:42;11.52;;;4.90;;
63259;SDS011;49390;51.380;0.098;2023-05-24T05:29:11;9.40;;;4.35;;
63259;SDS011;49390;51.380;0.098;2023-05-24T05:31:38;10.52;;;4.60;;
63259;SDS011;49390;51.380;0.098;2023-05-24T05:34:07;11.05;;;4.93;;
63259;SDS011;49390;51.380;0.098;2023-05-24T05:36:36;10.05;;;4.88;;
63259;SDS011;49390;51.380;0.098;2023-05-24T05:39:07;10.18;;;4.95;;
63259;SDS011;49390;51.380;0.098;2023-05-24T05:41:38;10.15;;;5.00;;
63259;SDS011;49390;51.380;0.098;2023-05-24T05:44:11;9.70;;;5.07;;
63259;SDS011;49390;51.380;0.098;2023-05-24T05:46:39;11.85;;;5.68;;
63259;SDS011;49390;51.380;0.098;2023-05-24T05:49:11;10.43;;;5.13;;
63259;SDS011;49390;51.380;0.098;2023-05-24T05:51:41;13.45;;;5.35;;
63259;SDS011;49390;51.380;0.098;2023-05-24T05:54:09;10.65;;;4.88;;
63259;SDS011;49390;51.380;0.098;2023-05-24T05:56:41;11.43;;;4.78;;
63259;SDS011;49390;51.380;0.098;2023-05-24T05:59:14;10.50;;;4.57;;
63259;SDS011;49390;51.380;0.098;2023-05-24T06:01:42;10.75;;;5.18;;
63259;SDS011;49390;51.380;0.098;2023-05-24T06:04:15;11.32;;;4.90;;
63259;SDS011;49390;51.380;0.098;2023-05-24T06:06:43;13.40;;;5.05;;
63259;SDS011;49390;51.380;0.098;2023-05-24T06:09:16;14.48;;;5.20;;
63259;SDS011;49390;51.380;0.098;2023-05-24T06:11:44;10.98;;;4.97;;
63259;SDS011;49390;51.380;0.098;2023-05-24T06:14:13;10.55;;;4.70;;
63259;SDS011;49390;51.380;0.098;2023-05-24T06:16:46;12.90;;;4.97;;
63259;SDS011;49390;51.380;0.098;2023-05-24T06:19:15;12.85;;;5.30;;
63259;SDS011;49390;51.380;0.098;2023-05-24T06:21:43;13.98;;;5.53;;
63259;SDS011;49390;51.380;0.098;2023-05-24T06:24:15;13.73;;;5.03;;
63259;SDS011;49390;51.380;0.098;2023-05-24T06:26:50;15.40;;;5.07;;
63259;SDS011;49390;51.380;0.098;2023-05-24T06:29:18;11.98;;;5.20;;
63259;SDS011;49390;51.380;0.098;2023-05-24T06:31:48;14.05;;;5.32;;
63259;SDS011;49390;51.380;0.098;2023-05-24T06:34:17;14.68;;;5.78;;
63259;SDS011;49390;51.380;0.098;2023-05-24T06:36:48;12.00;;;6.47;;
63259;SDS011;49390;51.380;0.098;2023-05-24T06:39:17;14.95;;;5.68;;
63259;SDS011;49390;51.380;0.098;2023-05-24T06:41:46;18.42;;;5.35;;
63259;SDS011;49390;51.380;0.098;2023-05-24T06:44:14;13.60;;;5.15;;
63259;SDS011;49390;51.380;0.098;2023-05-24T06:46:43;11.93;;;5.20;;
63259;SDS011;49390;51.380;0.098;2023-05-24T06:49:11;17.27;;;6.10;;
63259;SDS011;49390;51.380;0.098;2023-05-24T06:51:41;12.90;;;5.97;;
63259;SDS011;49390;51.380;0.098;2023-05-24T06:54:09;11.98;;;4.97;;
63259;SDS011;49390;51.380;0.098;2023-05-24T06:56:37;12.52;;;5.22;;
63259;SDS011;49390;51.380;0.098;2023-05-24T06:59:05;13.30;;;5.60;;
63259;SDS011;49390;51.380;0.098;2023-05-24T07:01:35;13.73;;;5.70;;
63259;SDS011;49390;51.380;0.098;2023-05-24T07:04:06;13.70;;;6.25;;
63259;SDS011;49390;51.380;0.098;2023-05-24T07:06:34;10.70;;;5.28;;
63259;SDS011;49390;51.380;0.098;2023-05-24T07:09:03;13.65;;;5.95;;
63259;SDS011;49390;51.380;0.098;2023-05-24T07:11:32;13.07;;;4.82;;
63259;SDS011;49390;51.380;0.098;2023-05-24T07:14:02;14.23;;;5.45;;
63259;SDS011;49390;51.380;0.098;2023-05-24T07:16:30;14.23;;;5.57;;
63259;SDS011;49390;51.380;0.098;2023-05-24T07:18:58;14.05;;;5.85;;
63259;SDS011;49390;51.380;0.098;2023-05-24T07:21:30;13.70;;;5.57;;
63259;SDS011;49390;51.380;0.098;2023-05-24T07:23:58;15.43;;;5.38;;
63259;SDS011;49390;51.380;0.098;2023-05-24T07:26:26;12.20;;;4.70;;
63259;SDS011;49390;51.380;0.098;2023-05-24T07:28:54;12.90;;;4.88;;
63259;SDS011;49390;51.380;0.098;2023-05-24T07:31:22;15.07;;;4.90;;
63259;SDS011;49390;51.380;0.098;2023-05-24T07:33:50;11.70;;;5.10;;
63259;SDS011;49390;51.380;0.098;2023-05-24T07:36:21;15.37;;;5.07;;
63259;SDS011;49390;51.380;0.098;2023-05-24T07:38:49;10.48;;;5.13;;
63259;SDS011;49390;51.380;0.098;2023-05-24T07:41:17;13.98;;;4.60;;
63259;SDS011;49390;51.380;0.098;2023-05-24T07:43:46;11.65;;;5.28;;
63259;SDS011;49390;51.380;0.098;2023-05-24T07:46:14;11.82;;;5.10;;
63259;SDS011;49390;51.380;0.098;2023-05-24T07:48:42;11.90;;;5.20;;
63259;SDS011;49390;51.380;0.098;2023-05-24T07:51:10;13.23;;;5.13;;
63259;SDS011;49390;51.380;0.098;2023-05-24T07:53:39;13.30;;;5.20;;
63259;SDS011;49390;51.380;0.098;2023-05-24T07:56:07;10.25;;;4.95;;
63259;SDS011;49390;51.380;0.098;2023-05-24T07:58:36;13.20;;;5.45;;
63259;SDS011;49390;51.380;0.098;2023-05-24T08:01:04;12.80;;;5.57;;
63259;SDS011;49390;51.380;0.098;2023-05-24T08:03:33;11.55;;;5.22;;
63259;SDS011;49390;51.380;0.098;2023-05-24T08:06:01;10.70;;;4.88;;
63259;SDS011;49390;51.380;0.098;2023-05-24T08:08:32;13.32;;;5.18;;
63259;SDS011;49390;51.380;0.098;2023-05-24T08:11:01;12.60;;;5.03;;
63259;SDS011;49390;51.380;0.098;2023-05-24T08:13:31;11.73;;;4.45;;
63259;SDS011;49390;51.380;0.098;2023-05-24T08:15:59;12.23;;;5.32;;
63259;SDS011;49390;51.380;0.098;2023-05-24T08:18:27;11.10;;;4.47;;
63259;SDS011;49390;51.380;0.098;2023-05-24T08:20:55;12.05;;;4.95;;
63259;SDS011;49390;51.380;0.098;2023-05-24T08:23:23;12.13;;;4.90;;
63259;SDS011;49390;51.380;0.098;2023-05-24T08:25:51;10.30;;;4.72;;
63259;SDS011;49390;51.380;0.098;2023-05-24T08:28:19;11.75;;;4.80;;
63259;SDS011;49390;51.380;0.098;2023-05-24T08:30:48;9.30;;;4.50;;
63259;SDS011;49390;51.380;0.098;2023-05-24T08:33:15;10.88;;;4.50;;
63259;SDS011;49390;51.380;0.098;2023-05-24T08:35:44;8.00;;;4.18;;
63259;SDS011;49390;51.380;0.098;2023-05-24T08:38:11;9.50;;;4.00;;
63259;SDS011;49390;51.380;0.098;2023-05-24T08:40:40;9.32;;;4.55;;
63259;SDS011;49390;51.380;0.098;2023-05-24T08:43:08;10.00;;;4.53;;
63259;SDS011;49390;51.380;0.098;2023-05-24T08:45:38;9.98;;;4.68;;
63259;SDS011;49390;51.380;0.098;2023-05-24T08:48:07;14.73;;;5.13;;
63259;SDS011;49390;51.380;0.098;2023-05-24T08:50:36;11.88;;;4.82;;
63259;SDS011;49390;51.380;0.098;2023-05-24T08:53:05;10.93;;;4.78;;
63259;SDS011;49390;51.380;0.098;2023-05-24T08:55:33;11.50;;;4.75;;
63259;SDS011;49390;51.380;0.098;2023-05-24T08:58:02;9.60;;;4.45;;
63259;SDS011;49390;51.380;0.098;2023-05-24T09:00:31;12.27;;;4.75;;
63259;SDS011;49390;51.380;0.098;2023-05-24T09:02:59;8.93;;;4.50;;
63259;SDS011;49390;51.380;0.098;2023-05-24T09:05:29;11.35;;;4.60;;
63259;SDS011;49390;51.380;0.098;2023-05-24T09:07:58;10.23;;;4.80;;
63259;SDS011;49390;51.380;0.098;2023-05-24T09:10:28;11.13;;;4.90;;
63259;SDS011;49390;51.380;0.098;2023-05-24T09:13:18;10.70;;;4.90;;
63259;SDS011;49390;51.380;0.098;2023-05-24T09:15:48;14.50;;;4.90;;
63259;SDS011;49390;51.380;0.098;2023-05-24T09:18:16;11.48;;;4.78;;
63259;SDS011;49390;51.380;0.098;2023-05-24T09:20:45;9.90;;;5.00;;
63259;SDS011;49390;51.380;0.098;2023-05-24T09:23:13;9.82;;;4.90;;
63259;SDS011;49390;51.380;0.098;2023-05-24T09:25:44;12.43;;;4.75;;
63259;SDS011;49390;51.380;0.098;2023-05-24T09:28:13;13.73;;;4.63;;
63259;SDS011;49390;51.380;0.098;2023-05-24T09:30:45;12.73;;;4.68;;
63259;SDS011;49390;51.380;0.098;2023-05-24T09:33:28;10.52;;;4.45;;
63259;SDS011;49390;51.380;0.098;2023-05-24T09:36:06;10.27;;;4.70;;
63259;SDS011;49390;51.380;0.098;2023-05-24T09:38:35;11.75;;;4.53;;
63259;SDS011;49390;51.380;0.098;2023-05-24T09:41:06;10.43;;;4.18;;
63259;SDS011;49390;51.380;0.098;2023-05-24T09:43:47;9.52;;;4.57;;
63259;SDS011;49390;51.380;0.098;2023-05-24T09:46:20;11.70;;;4.85;;
63259;SDS011;49390;51.380;0.098;2023-05-24T09:48:58;11.98;;;4.90;;
63259;SDS011;49390;51.380;0.098;2023-05-24T09:53:43;10.82;;;4.60;;
63259;SDS011;49390;51.380;0.098;2023-05-24T09:58:44;12.13;;;4.90;;
63259;SDS011;49390;51.380;0.098;2023-05-24T10:01:12;10.75;;;4.55;;
63259;SDS011;49390;51.380;0.098;2023-05-24T10:03:55;7.95;;;3.92;;
63259;SDS011;49390;51.380;0.098;2023-05-24T10:06:25;10.57;;;4.50;;
63259;SDS011;49390;51.380;0.098;2023-05-24T10:08:55;10.93;;;4.85;;
63259;SDS011;49390;51.380;0.098;2023-05-24T10:11:23;11.38;;;4.47;;
63259;SDS011;49390;51.380;0.098;2023-05-24T10:13:55;10.23;;;4.50;;
63259;SDS011;49390;51.380;0.098;2023-05-24T10:16:26;11.57;;;4.70;;
63259;SDS011;49390;51.380;0.098;2023-05-24T10:18:54;11.50;;;4.43;;
63259;SDS011;49390;51.380;0.098;2023-05-24T10:21:23;12.27;;;4.43;;
63259;SDS011;49390;51.380;0.098;2023-05-24T10:23:55;10.43;;;4.40;;
63259;SDS011;49390;51.380;0.098;2023-05-24T10:26:27;10.90;;;4.72;;
63259;SDS011;49390;51.380;0.098;2023-05-24T10:29:03;11.15;;;4.75;;
63259;SDS011;49390;51.380;0.098;2023-05-24T10:31:37;11.73;;;4.53;;
63259;SDS011;49390;51.380;0.098;2023-05-24T10:34:08;10.27;;;5.25;;
63259;SDS011;49390;51.380;0.098;2023-05-24T10:39:08;8.52;;;4.20;;
63259;SDS011;49390;51.380;0.098;2023-05-24T10:41:41;10.68;;;4.15;;
63259;SDS011;49390;51.380;0.098;2023-05-24T10:44:12;10.75;;;4.22;;
63259;SDS011;49390;51.380;0.098;2023-05-24T10:49:57;14.35;;;5.18;;
63259;SDS011;49390;51.380;0.098;2023-05-24T10:52:33;9.55;;;4.72;;
63259;SDS011;49390;51.380;0.098;2023-05-24T10:55:04;10.85;;;4.43;;
63259;SDS011;49390;51.380;0.098;2023-05-24T10:57:35;10.77;;;4.72;;
63259;SDS011;49390;51.380;0.098;2023-05-24T11:08:39;12.13;;;4.97;;
63259;SDS011;49390;51.380;0.098;2023-05-24T11:11:10;9.63;;;4.50;;
63259;SDS011;49390;51.380;0.098;2023-05-24T11:13:44;8.68;;;4.38;;
63259;SDS011;49390;51.380;0.098;2023-05-24T11:16:32;9.73;;;4.43;;
63259;SDS011;49390;51.380;0.098;2023-05-24T11:19:21;11.32;;;4.50;;
63259;SDS011;49390;51.380;0.098;2023-05-24T11:21:51;12.18;;;5.20;;
63259;SDS011;49390;51.380;0.098;2023-05-24T11:24:26;10.07;;;4.47;;
63259;SDS011;49390;51.380;0.098;2023-05-24T11:26:55;8.57;;;4.10;;
63259;SDS011;49390;51.380;0.098;2023-05-24T11:29:27;12.57;;;5.03;;
63259;SDS011;49390;51.380;0.098;2023-05-24T11:31:58;10.68;;;4.80;;
63259;SDS011;49390;51.380;0.098;2023-05-24T11:34:34;12.27;;;4.65;;
63259;SDS011;49390;51.380;0.098;2023-05-24T11:37:03;10.80;;;4.60;;
63259;SDS011;49390;51.380;0.098;2023-05-24T11:39:34;8.55;;;4.20;;
63259;SDS011;49390;51.380;0.098;2023-05-24T11:42:03;10.18;;;4.47;;
63259;SDS011;49390;51.380;0.098;2023-05-24T11:44:35;10.48;;;4.70;;
63259;SDS011;49390;51.380;0.098;2023-05-24T11:47:07;8.93;;;3.83;;
63259;SDS011;49390;51.380;0.098;2023-05-24T11:49:38;9.63;;;4.40;;
63259;SDS011;49390;51.380;0.098;2023-05-24T11:52:06;10.05;;;4.20;;
63259;SDS011;49390;51.380;0.098;2023-05-24T11:54:35;9.38;;;3.95;;
63259;SDS011;49390;51.380;0.098;2023-05-24T11:57:06;7.47;;;4.35;;
63259;SDS011;49390;51.380;0.098;2023-05-24T11:59:39;11.15;;;5.20;;
63259;SDS011;49390;51.380;0.098;2023-05-24T12:02:10;9.32;;;4.45;;
63259;SDS011;49390;51.380;0.098;2023-05-24T12:04:39;8.40;;;4.10;;
63259;SDS011;49390;51.380;0.098;2023-05-24T12:07:10;8.07;;;4.00;;
63259;SDS011;49390;51.380;0.098;2023-05-24T12:09:43;8.00;;;3.97;;
63259;SDS011;49390;51.380;0.098;2023-05-24T12:12:11;10.48;;;4.65;;
63259;SDS011;49390;51.380;0.098;2023-05-24T12:14:39;11.40;;;4.88;;
63259;SDS011;49390;51.380;0.098;2023-05-24T12:17:12;10.50;;;4.97;;
63259;SDS011;49390;51.380;0.098;2023-05-24T12:19:43;10.68;;;4.63;;
63259;SDS011;49390;51.380;0.098;2023-05-24T12:22:11;11.48;;;4.78;;
63259;SDS011;49390;51.380;0.098;2023-05-24T12:24:40;11.00;;;5.10;;
63259;SDS011;49390;51.380;0.098;2023-05-24T12:27:18;8.63;;;4.80;;
63259;SDS011;49390;51.380;0.098;2023-05-24T12:29:47;9.73;;;4.50;;
63259;SDS011;49390;51.380;0.098;2023-05-24T12:32:16;9.02;;;4.10;;
63259;SDS011;49390;51.380;0.098;2023-05-24T12:34:45;14.98;;;5.03;;
63259;SDS011;49390;51.380;0.098;2023-05-24T12:37:16;14.38;;;5.10;;
63259;SDS011;49390;51.380;0.098;2023-05-24T12:39:48;10.52;;;5.00;;
63259;SDS011;49390;51.380;0.098;2023-05-24T12:42:20;9.70;;;5.07;;
63259;SDS011;49390;51.380;0.098;2023-05-24T12:44:51;9.07;;;4.95;;
63259;SDS011;49390;51.380;0.098;2023-05-24T12:47:23;9.93;;;5.10;;
63259;SDS011;49390;51.380;0.098;2023-05-24T12:49:53;11.85;;;5.50;;
63259;SDS011;49390;51.380;0.098;2023-05-24T12:52:22;10.27;;;5.80;;
63259;SDS011;49390;51.380;0.098;2023-05-24T12:54:51;9.15;;;4.70;;
63259;SDS011;49390;51.380;0.098;2023-05-24T12:57:19;12.38;;;6.13;;
63259;SDS011;49390;51.380;0.098;2023-05-24T12:59:48;9.90;;;4.78;;
63259;SDS011;49390;51.380;0.098;2023-05-24T13:02:16;9.57;;;4.60;;
63259;SDS011;49390;51.380;0.098;2023-05-24T13:04:45;13.88;;;5.10;;
63259;SDS011;49390;51.380;0.098;2023-05-24T13:07:13;12.75;;;5.65;;
63259;SDS011;49390;51.380;0.098;2023-05-24T13:09:42;11.13;;;4.78;;
63259;SDS011;49390;51.380;0.098;2023-05-24T13:12:12;9.90;;;5.23;;
63259;SDS011;49390;51.380;0.098;2023-05-24T13:14:40;12.52;;;4.80;;
63259;SDS011;49390;51.380;0.098;2023-05-24T13:17:08;10.35;;;4.20;;
63259;SDS011;49390;51.380;0.098;2023-05-24T13:19:38;11.85;;;5.20;;
63259;SDS011;49390;51.380;0.098;2023-05-24T13:22:08;9.88;;;5.05;;
63259;SDS011;49390;51.380;0.098;2023-05-24T13:24:37;9.63;;;4.75;;
63259;SDS011;49390;51.380;0.098;2023-05-24T13:27:08;8.48;;;5.00;;
63259;SDS011;49390;51.380;0.098;2023-05-24T13:29:37;10.82;;;5.03;;
63259;SDS011;49390;51.380;0.098;2023-05-24T13:32:18;6.80;;;4.22;;
63259;SDS011;49390;51.380;0.098;2023-05-24T13:34:50;11.18;;;4.75;;
63259;SDS011;49390;51.380;0.098;2023-05-24T13:37:22;11.00;;;5.18;;
63259;SDS011;49390;51.380;0.098;2023-05-24T13:39:51;9.37;;;4.80;;
63259;SDS011;49390;51.380;0.098;2023-05-24T13:42:19;7.63;;;3.95;;
63259;SDS011;49390;51.380;0.098;2023-05-24T13:44:48;9.63;;;4.63;;
63259;SDS011;49390;51.380;0.098;2023-05-24T13:47:17;8.38;;;4.60;;
63259;SDS011;49390;51.380;0.098;2023-05-24T13:50:06;11.32;;;4.78;;
63259;SDS011;49390;51.380;0.098;2023-05-24T13:52:34;10.52;;;5.30;;
63259;SDS011;49390;51.380;0.098;2023-05-24T13:55:03;9.35;;;4.25;;
63259;SDS011;49390;51.380;0.098;2023-05-24T13:57:32;8.80;;;4.75;;
63259;SDS011;49390;51.380;0.098;2023-05-24T14:00:06;9.55;;;4.50;;
63259;SDS011;49390;51.380;0.098;2023-05-24T14:02:38;8.90;;;4.72;;
63259;SDS011;49390;51.380;0.098;2023-05-24T14:05:08;11.05;;;4.47;;
63259;SDS011;49390;51.380;0.098;2023-05-24T14:07:41;9.43;;;4.53;;
63259;SDS011;49390;51.380;0.098;2023-05-24T14:10:09;7.75;;;4.50;;
63259;SDS011;49390;51.380;0.098;2023-05-24T14:12:39;10.95;;;4.80;;
63259;SDS011;49390;51.380;0.098;2023-05-24T14:15:08;10.07;;;4.80;;
63259;SDS011;49390;51.380;0.098;2023-05-24T14:17:39;9.18;;;4.80;;
63259;SDS011;49390;51.380;0.098;2023-05-24T14:20:08;8.82;;;4.70;;
63259;SDS011;49390;51.380;0.098;2023-05-24T14:22:36;10.70;;;4.53;;
63259;SDS011;49390;51.380;0.098;2023-05-24T14:25:07;10.85;;;4.80;;
63259;SDS011;49390;51.380;0.098;2023-05-24T14:27:36;7.28;;;4.50;;
63259;SDS011;49390;51.380;0.098;2023-05-24T14:30:04;10.85;;;4.45;;
63259;SDS011;49390;51.380;0.098;2023-05-24T14:32:33;8.95;;;4.55;;
63259;SDS011;49390;51.380;0.098;2023-05-24T14:35:01;11.85;;;5.13;;
63259;SDS011;49390;51.380;0.098;2023-05-24T14:37:30;10.48;;;5.10;;
63259;SDS011;49390;51.380;0.098;2023-05-24T14:39:59;9.65;;;4.93;;
63259;SDS011;49390;51.380;0.098;2023-05-24T14:42:27;10.40;;;5.30;;
63259;SDS011;49390;51.380;0.098;2023-05-24T14:44:57;12.23;;;5.00;;
63259;SDS011;49390;51.380;0.098;2023-05-24T14:47:25;9.90;;;4.82;;
63259;SDS011;49390;51.380;0.098;2023-05-24T14:49:53;8.82;;;4.88;;
63259;SDS011;49390;51.380;0.098;2023-05-24T14:52:22;9.10;;;5.13;;
63259;SDS011;49390;51.380;0.098;2023-05-24T14:54:50;10.80;;;5.05;;
63259;SDS011;49390;51.380;0.098;2023-05-24T14:57:18;8.70;;;4.57;;
63259;SDS011;49390;51.380;0.098;2023-05-24T14:59:47;10.27;;;4.78;;
63259;SDS011;49390;51.380;0.098;2023-05-24T15:02:17;9.27;;;5.10;;
63259;SDS011;49390;51.380;0.098;2023-05-24T15:04:46;9.02;;;5.10;;
63259;SDS011;49390;51.380;0.098;2023-05-24T15:07:14;8.27;;;4.43;;
63259;SDS011;49390;51.380;0.098;2023-05-24T15:09:45;8.23;;;4.88;;
63259;SDS011;49390;51.380;0.098;2023-05-24T15:12:13;14.23;;;5.40;;
63259;SDS011;49390;51.380;0.098;2023-05-24T15:14:41;9.93;;;5.38;;
63259;SDS011;49390;51.380;0.098;2023-05-24T15:17:09;9.85;;;5.10;;
63259;SDS011;49390;51.380;0.098;2023-05-24T15:19:38;8.50;;;4.85;;
63259;SDS011;49390;51.380;0.098;2023-05-24T15:22:08;10.63;;;5.07;;
63259;SDS011;49390;51.380;0.098;2023-05-24T15:24:37;11.60;;;5.22;;
63259;SDS011;49390;51.380;0.098;2023-05-24T15:27:05;9.30;;;5.00;;
63259;SDS011;49390;51.380;0.098;2023-05-24T15:29:33;10.27;;;5.20;;
63259;SDS011;49390;51.380;0.098;2023-05-24T15:32:02;7.43;;;4.75;;
63259;SDS011;49390;51.380;0.098;2023-05-24T15:34:32;9.95;;;5.43;;
63259;SDS011;49390;51.380;0.098;2023-05-24T15:37:03;9.00;;;5.22;;
63259;SDS011;49390;51.380;0.098;2023-05-24T15:39:32;11.45;;;5.50;;
63259;SDS011;49390;51.380;0.098;2023-05-24T15:42:03;9.45;;;5.28;;